sensor_id;sensor_type;location;lat;lon;timestamp;temperature;humidity
21267;DHT22;10791;53.108;18.326;2024-03-22T00:04:30;8.70;99.90
21267;DHT22;10791;53.108;18.326;2024-03-22T00:09:32;8.70;99.90
21267;DHT22;10791;53.108;18.326;2024-03-22T00:14:34;8.60;99.90
21267;DHT22;10791;53.108;18.326;2024-03-22T00:19:36;8.60;99.90
21267;DHT22;10791;53.108;18.326;2024-03-22T00:24:38;8.60;99.90
21267;DHT22;10791;53.108;18.326;2024-03-22T00:29:40;8.50;99.90
21267;DHT22;10791;53.108;18.326;2024-03-22T00:34:42;8.50;99.90
21267;DHT22;10791;53.108;18.326;2024-03-22T00:39:45;8.40;99.90
21267;DHT22;10791;53.108;18.326;2024-03-22T00:44:47;8.30;99.90
21267;DHT22;10791;53.108;18.326;2024-03-22T00:49:50;8.30;99.90
21267;DHT22;10791;53.108;18.326;2024-03-22T00:54:51;8.20;99.90
21267;DHT22;10791;53.108;18.326;2024-03-22T00:59:54;8.20;99.90
21267;DHT22;10791;53.108;18.326;2024-03-22T01:04:56;8.10;99.90
21267;DHT22;10791;53.108;18.326;2024-03-22T01:09:59;8.10;99.90
21267;DHT22;10791;53.108;18.326;2024-03-22T01:15:01;8.10;99.90
21267;DHT22;10791;53.108;18.326;2024-03-22T01:20:03;8.10;99.90
21267;DHT22;10791;53.108;18.326;2024-03-22T01:25:07;8.10;99.90
21267;DHT22;10791;53.108;18.326;2024-03-22T01:30:09;8.10;99.90
21267;DHT22;10791;53.108;18.326;2024-03-22T01:35:12;8.00;99.90
21267;DHT22;10791;53.108;18.326;2024-03-22T01:40:14;8.00;99.90
21267;DHT22;10791;53.108;18.326;2024-03-22T01:45:16;8.00;99.90
21267;DHT22;10791;53.108;18.326;2024-03-22T01:50:18;8.00;99.90
21267;DHT22;10791;53.108;18.326;2024-03-22T01:55:21;8.00;99.90
21267;DHT22;10791;53.108;18.326;2024-03-22T02:00:23;7.90;99.90
21267;DHT22;10791;53.108;18.326;2024-03-22T02:05:25;7.90;99.90
21267;DHT22;10791;53.108;18.326;2024-03-22T02:10:27;7.90;99.90
21267;DHT22;10791;53.108;18.326;2024-03-22T02:15:30;7.80;99.90
21267;DHT22;10791;53.108;18.326;2024-03-22T02:20:33;7.90;99.90
21267;DHT22;10791;53.108;18.326;2024-03-22T02:25:35;7.80;99.90
21267;DHT22;10791;53.108;18.326;2024-03-22T02:30:37;7.80;99.90
21267;DHT22;10791;53.108;18.326;2024-03-22T02:35:39;7.80;99.90
21267;DHT22;10791;53.108;18.326;2024-03-22T02:40:43;7.70;99.90
21267;DHT22;10791;53.108;18.326;2024-03-22T02:45:46;7.70;99.90
21267;DHT22;10791;53.108;18.326;2024-03-22T02:50:48;7.70;99.90
21267;DHT22;10791;53.108;18.326;2024-03-22T02:55:51;7.70;99.90
21267;DHT22;10791;53.108;18.326;2024-03-22T03:00:53;7.70;99.90
21267;DHT22;10791;53.108;18.326;2024-03-22T03:05:55;7.60;99.90
21267;DHT22;10791;53.108;18.326;2024-03-22T03:10:57;7.60;99.90
21267;DHT22;10791;53.108;18.326;2024-03-22T03:16:00;7.60;99.90
21267;DHT22;10791;53.108;18.326;2024-03-22T03:21:02;7.60;99.90
21267;DHT22;10791;53.108;18.326;2024-03-22T03:26:04;7.60;99.90
21267;DHT22;10791;53.108;18.326;2024-03-22T03:31:06;7.50;99.90
21267;DHT22;10791;53.108;18.326;2024-03-22T03:36:09;7.50;99.90
21267;DHT22;10791;53.108;18.326;2024-03-22T03:41:11;7.50;99.90
21267;DHT22;10791;53.108;18.326;2024-03-22T03:46:13;7.50;99.90
21267;DHT22;10791;53.108;18.326;2024-03-22T03:51:15;7.50;99.90
21267;DHT22;10791;53.108;18.326;2024-03-22T03:56:17;7.40;99.90
21267;DHT22;10791;53.108;18.326;2024-03-22T04:01:19;7.40;99.90
21267;DHT22;10791;53.108;18.326;2024-03-22T04:06:21;7.40;99.90
21267;DHT22;10791;53.108;18.326;2024-03-22T04:11:24;7.40;99.90
21267;DHT22;10791;53.108;18.326;2024-03-22T04:16:26;7.40;99.90
21267;DHT22;10791;53.108;18.326;2024-03-22T04:21:29;7.40;99.90
21267;DHT22;10791;53.108;18.326;2024-03-22T04:26:31;7.30;99.90
21267;DHT22;10791;53.108;18.326;2024-03-22T04:31:33;7.30;99.90
21267;DHT22;10791;53.108;18.326;2024-03-22T04:36:35;7.30;99.90
21267;DHT22;10791;53.108;18.326;2024-03-22T04:41:37;7.30;99.90
21267;DHT22;10791;53.108;18.326;2024-03-22T04:46:39;7.30;99.90
21267;DHT22;10791;53.108;18.326;2024-03-22T04:51:41;7.30;99.90
21267;DHT22;10791;53.108;18.326;2024-03-22T04:56:43;7.30;99.90
21267;DHT22;10791;53.108;18.326;2024-03-22T05:01:45;7.30;99.90
21267;DHT22;10791;53.108;18.326;2024-03-22T05:06:47;7.20;99.90
21267;DHT22;10791;53.108;18.326;2024-03-22T05:11:49;7.20;99.90
21267;DHT22;10791;53.108;18.326;2024-03-22T05:16:52;7.20;99.90
21267;DHT22;10791;53.108;18.326;2024-03-22T05:21:55;7.10;99.90
21267;DHT22;10791;53.108;18.326;2024-03-22T05:26:57;7.10;99.90
21267;DHT22;10791;53.108;18.326;2024-03-22T05:31:59;7.10;99.90
21267;DHT22;10791;53.108;18.326;2024-03-22T05:37:03;7.10;99.90
21267;DHT22;10791;53.108;18.326;2024-03-22T05:42:05;7.10;99.90
21267;DHT22;10791;53.108;18.326;2024-03-22T05:47:07;7.10;99.90
21267;DHT22;10791;53.108;18.326;2024-03-22T05:52:09;7.10;99.90
21267;DHT22;10791;53.108;18.326;2024-03-22T05:57:11;7.20;99.90
21267;DHT22;10791;53.108;18.326;2024-03-22T06:02:13;7.20;99.90
21267;DHT22;10791;53.108;18.326;2024-03-22T06:07:16;7.20;99.90
21267;DHT22;10791;53.108;18.326;2024-03-22T06:12:19;7.20;99.90
21267;DHT22;10791;53.108;18.326;2024-03-22T06:17:23;7.20;99.90
21267;DHT22;10791;53.108;18.326;2024-03-22T06:22:25;7.30;99.90
21267;DHT22;10791;53.108;18.326;2024-03-22T06:27:28;7.40;99.90
21267;DHT22;10791;53.108;18.326;2024-03-22T06:32:30;7.40;99.90
21267;DHT22;10791;53.108;18.326;2024-03-22T06:37:32;7.40;99.90
21267;DHT22;10791;53.108;18.326;2024-03-22T06:42:34;7.30;99.90
21267;DHT22;10791;53.108;18.326;2024-03-22T06:47:36;7.30;99.90
21267;DHT22;10791;53.108;18.326;2024-03-22T06:52:38;7.30;99.90
21267;DHT22;10791;53.108;18.326;2024-03-22T06:57:40;7.30;99.90
21267;DHT22;10791;53.108;18.326;2024-03-22T07:02:42;7.40;99.90
21267;DHT22;10791;53.108;18.326;2024-03-22T07:07:45;7.40;99.90
21267;DHT22;10791;53.108;18.326;2024-03-22T07:12:47;7.40;99.90
21267;DHT22;10791;53.108;18.326;2024-03-22T07:17:49;7.50;99.90
21267;DHT22;10791;53.108;18.326;2024-03-22T07:22:52;7.60;99.90
21267;DHT22;10791;53.108;18.326;2024-03-22T07:27:55;7.70;99.90
21267;DHT22;10791;53.108;18.326;2024-03-22T07:32:58;7.80;99.90
21267;DHT22;10791;53.108;18.326;2024-03-22T07:38:00;7.80;99.90
21267;DHT22;10791;53.108;18.326;2024-03-22T07:43:02;7.80;99.90
21267;DHT22;10791;53.108;18.326;2024-03-22T07:48:07;8.00;99.90
21267;DHT22;10791;53.108;18.326;2024-03-22T07:53:10;8.10;99.90
21267;DHT22;10791;53.108;18.326;2024-03-22T07:58:14;8.20;99.90
21267;DHT22;10791;53.108;18.326;2024-03-22T08:03:17;8.20;99.90
21267;DHT22;10791;53.108;18.326;2024-03-22T08:08:20;8.20;99.90
21267;DHT22;10791;53.108;18.326;2024-03-22T08:13:22;8.20;99.90
21267;DHT22;10791;53.108;18.326;2024-03-22T08:18:24;8.10;99.90
21267;DHT22;10791;53.108;18.326;2024-03-22T08:23:26;8.10;99.90
21267;DHT22;10791;53.108;18.326;2024-03-22T08:28:29;8.30;99.90
21267;DHT22;10791;53.108;18.326;2024-03-22T08:33:31;8.40;99.90
21267;DHT22;10791;53.108;18.326;2024-03-22T08:38:33;8.50;99.90
21267;DHT22;10791;53.108;18.326;2024-03-22T08:43:36;8.60;99.90
21267;DHT22;10791;53.108;18.326;2024-03-22T08:48:38;8.60;99.90
21267;DHT22;10791;53.108;18.326;2024-03-22T08:53:41;8.60;99.90
21267;DHT22;10791;53.108;18.326;2024-03-22T08:58:43;8.80;99.90
21267;DHT22;10791;53.108;18.326;2024-03-22T09:03:45;8.90;99.90
21267;DHT22;10791;53.108;18.326;2024-03-22T09:08:48;9.00;99.90
21267;DHT22;10791;53.108;18.326;2024-03-22T09:13:53;9.30;99.90
21267;DHT22;10791;53.108;18.326;2024-03-22T09:18:55;9.50;99.90
21267;DHT22;10791;53.108;18.326;2024-03-22T09:23:58;9.50;99.90
21267;DHT22;10791;53.108;18.326;2024-03-22T09:29:00;9.80;99.90
21267;DHT22;10791;53.108;18.326;2024-03-22T09:34:02;9.80;99.90
21267;DHT22;10791;53.108;18.326;2024-03-22T09:39:04;9.60;99.90
21267;DHT22;10791;53.108;18.326;2024-03-22T09:44:06;9.50;99.90
21267;DHT22;10791;53.108;18.326;2024-03-22T09:49:10;9.50;99.90
21267;DHT22;10791;53.108;18.326;2024-03-22T09:54:13;9.40;99.90
21267;DHT22;10791;53.108;18.326;2024-03-22T09:59:16;9.40;99.90
21267;DHT22;10791;53.108;18.326;2024-03-22T10:04:18;9.40;99.90
21267;DHT22;10791;53.108;18.326;2024-03-22T10:09:28;9.50;99.90
21267;DHT22;10791;53.108;18.326;2024-03-22T10:14:32;9.60;99.90
21267;DHT22;10791;53.108;18.326;2024-03-22T10:19:35;9.80;99.90
21267;DHT22;10791;53.108;18.326;2024-03-22T10:24:38;9.90;99.90
21267;DHT22;10791;53.108;18.326;2024-03-22T10:29:40;10.10;99.90
21267;DHT22;10791;53.108;18.326;2024-03-22T10:34:43;10.10;99.90
21267;DHT22;10791;53.108;18.326;2024-03-22T10:39:48;10.20;99.90
21267;DHT22;10791;53.108;18.326;2024-03-22T10:44:52;10.20;99.90
21267;DHT22;10791;53.108;18.326;2024-03-22T10:50:18;10.20;99.90
21267;DHT22;10791;53.108;18.326;2024-03-22T10:55:41;10.40;99.90
21267;DHT22;10791;53.108;18.326;2024-03-22T11:00:44;10.60;99.90
21267;DHT22;10791;53.108;18.326;2024-03-22T11:05:53;10.90;99.90
21267;DHT22;10791;53.108;18.326;2024-03-22T11:11:12;10.80;99.90
21267;DHT22;10791;53.108;18.326;2024-03-22T11:16:14;10.70;99.90
21267;DHT22;10791;53.108;18.326;2024-03-22T11:21:17;10.60;99.90
21267;DHT22;10791;53.108;18.326;2024-03-22T11:26:22;10.50;99.90
21267;DHT22;10791;53.108;18.326;2024-03-22T11:31:24;10.30;99.90
21267;DHT22;10791;53.108;18.326;2024-03-22T11:36:29;10.40;99.90
21267;DHT22;10791;53.108;18.326;2024-03-22T11:41:32;10.30;99.90
21267;DHT22;10791;53.108;18.326;2024-03-22T11:46:33;10.20;99.90
21267;DHT22;10791;53.108;18.326;2024-03-22T11:51:35;10.10;99.90
21267;DHT22;10791;53.108;18.326;2024-03-22T11:56:39;10.10;99.90
21267;DHT22;10791;53.108;18.326;2024-03-22T12:01:42;10.10;99.90
21267;DHT22;10791;53.108;18.326;2024-03-22T12:06:45;10.00;99.90
21267;DHT22;10791;53.108;18.326;2024-03-22T12:11:47;10.10;99.90
21267;DHT22;10791;53.108;18.326;2024-03-22T12:16:49;10.10;99.90
21267;DHT22;10791;53.108;18.326;2024-03-22T12:21:52;10.10;99.90
21267;DHT22;10791;53.108;18.326;2024-03-22T12:26:54;10.10;99.90
21267;DHT22;10791;53.108;18.326;2024-03-22T12:31:56;10.20;99.90
21267;DHT22;10791;53.108;18.326;2024-03-22T12:36:58;10.40;99.90
21267;DHT22;10791;53.108;18.326;2024-03-22T12:42:01;10.50;99.90
21267;DHT22;10791;53.108;18.326;2024-03-22T12:47:03;10.60;99.90
21267;DHT22;10791;53.108;18.326;2024-03-22T12:52:06;10.60;99.90
21267;DHT22;10791;53.108;18.326;2024-03-22T12:57:09;10.60;99.90
21267;DHT22;10791;53.108;18.326;2024-03-22T13:02:12;10.70;99.90
21267;DHT22;10791;53.108;18.326;2024-03-22T13:07:14;10.70;99.90
21267;DHT22;10791;53.108;18.326;2024-03-22T13:12:17;10.80;99.90
21267;DHT22;10791;53.108;18.326;2024-03-22T13:17:20;10.80;99.90
21267;DHT22;10791;53.108;18.326;2024-03-22T13:22:25;10.90;99.90
21267;DHT22;10791;53.108;18.326;2024-03-22T13:27:27;10.90;99.90
21267;DHT22;10791;53.108;18.326;2024-03-22T13:32:30;11.00;99.90
21267;DHT22;10791;53.108;18.326;2024-03-22T13:37:33;11.00;99.90
21267;DHT22;10791;53.108;18.326;2024-03-22T13:42:35;11.10;99.90
21267;DHT22;10791;53.108;18.326;2024-03-22T13:47:37;11.10;99.90
21267;DHT22;10791;53.108;18.326;2024-03-22T13:52:42;11.20;99.90
21267;DHT22;10791;53.108;18.326;2024-03-22T13:57:44;11.20;99.90
21267;DHT22;10791;53.108;18.326;2024-03-22T14:02:47;11.30;99.90
21267;DHT22;10791;53.108;18.326;2024-03-22T14:07:54;11.40;99.90
21267;DHT22;10791;53.108;18.326;2024-03-22T14:12:56;11.40;99.90
21267;DHT22;10791;53.108;18.326;2024-03-22T14:17:59;11.50;99.90
21267;DHT22;10791;53.108;18.326;2024-03-22T14:23:01;11.50;99.90
21267;DHT22;10791;53.108;18.326;2024-03-22T14:28:06;11.50;99.90
21267;DHT22;10791;53.108;18.326;2024-03-22T14:33:11;11.50;99.90
21267;DHT22;10791;53.108;18.326;2024-03-22T14:38:13;11.40;99.90
21267;DHT22;10791;53.108;18.326;2024-03-22T14:43:15;11.50;99.90
21267;DHT22;10791;53.108;18.326;2024-03-22T14:48:17;11.40;99.90
21267;DHT22;10791;53.108;18.326;2024-03-22T14:53:20;11.40;99.90
21267;DHT22;10791;53.108;18.326;2024-03-22T14:58:26;11.40;99.90
21267;DHT22;10791;53.108;18.326;2024-03-22T15:03:28;11.30;99.90
21267;DHT22;10791;53.108;18.326;2024-03-22T15:08:34;11.30;99.90
21267;DHT22;10791;53.108;18.326;2024-03-22T15:13:36;11.20;99.90
21267;DHT22;10791;53.108;18.326;2024-03-22T15:18:39;11.20;99.90
21267;DHT22;10791;53.108;18.326;2024-03-22T15:23:47;11.20;99.90
21267;DHT22;10791;53.108;18.326;2024-03-22T15:28:49;11.20;99.90
21267;DHT22;10791;53.108;18.326;2024-03-22T15:33:51;11.20;99.90
21267;DHT22;10791;53.108;18.326;2024-03-22T15:38:54;11.30;99.90
21267;DHT22;10791;53.108;18.326;2024-03-22T15:43:56;11.30;99.90
21267;DHT22;10791;53.108;18.326;2024-03-22T15:48:58;11.30;99.90
21267;DHT22;10791;53.108;18.326;2024-03-22T15:54:00;11.40;99.90
21267;DHT22;10791;53.108;18.326;2024-03-22T15:59:02;11.50;99.90
21267;DHT22;10791;53.108;18.326;2024-03-22T16:04:04;11.40;99.90
21267;DHT22;10791;53.108;18.326;2024-03-22T16:09:08;11.30;99.90
21267;DHT22;10791;53.108;18.326;2024-03-22T16:14:14;11.20;99.90
21267;DHT22;10791;53.108;18.326;2024-03-22T16:19:17;11.20;99.90
21267;DHT22;10791;53.108;18.326;2024-03-22T16:24:19;11.20;99.90
21267;DHT22;10791;53.108;18.326;2024-03-22T16:29:21;11.20;99.90
21267;DHT22;10791;53.108;18.326;2024-03-22T16:34:26;11.20;99.90
21267;DHT22;10791;53.108;18.326;2024-03-22T16:39:28;11.20;99.90
21267;DHT22;10791;53.108;18.326;2024-03-22T16:44:30;11.10;99.90
21267;DHT22;10791;53.108;18.326;2024-03-22T16:49:32;11.10;99.90
21267;DHT22;10791;53.108;18.326;2024-03-22T16:54:35;11.10;99.90
21267;DHT22;10791;53.108;18.326;2024-03-22T16:59:43;11.20;99.90
21267;DHT22;10791;53.108;18.326;2024-03-22T17:04:45;11.10;99.90
21267;DHT22;10791;53.108;18.326;2024-03-22T17:09:47;11.10;99.90
21267;DHT22;10791;53.108;18.326;2024-03-22T17:14:49;11.10;99.90
21267;DHT22;10791;53.108;18.326;2024-03-22T17:19:52;11.10;99.90
21267;DHT22;10791;53.108;18.326;2024-03-22T17:24:58;11.00;99.90
21267;DHT22;10791;53.108;18.326;2024-03-22T17:30:03;11.00;99.90
21267;DHT22;10791;53.108;18.326;2024-03-22T17:35:06;11.00;99.90
21267;DHT22;10791;53.108;18.326;2024-03-22T17:40:09;11.10;99.90
21267;DHT22;10791;53.108;18.326;2024-03-22T17:45:11;11.00;99.90
21267;DHT22;10791;53.108;18.326;2024-03-22T17:50:13;11.00;99.90
21267;DHT22;10791;53.108;18.326;2024-03-22T17:55:15;11.00;99.90
21267;DHT22;10791;53.108;18.326;2024-03-22T18:00:18;11.00;99.90
21267;DHT22;10791;53.108;18.326;2024-03-22T18:05:20;11.00;99.90
21267;DHT22;10791;53.108;18.326;2024-03-22T18:10:22;11.00;99.90
21267;DHT22;10791;53.108;18.326;2024-03-22T18:15:25;11.00;99.90
21267;DHT22;10791;53.108;18.326;2024-03-22T18:20:30;10.90;99.90
21267;DHT22;10791;53.108;18.326;2024-03-22T18:25:33;10.90;99.90
21267;DHT22;10791;53.108;18.326;2024-03-22T18:30:35;10.90;99.90
21267;DHT22;10791;53.108;18.326;2024-03-22T18:35:37;10.90;99.90
21267;DHT22;10791;53.108;18.326;2024-03-22T18:40:39;10.80;99.90
21267;DHT22;10791;53.108;18.326;2024-03-22T18:45:42;10.80;99.90
21267;DHT22;10791;53.108;18.326;2024-03-22T18:50:44;10.70;99.90
21267;DHT22;10791;53.108;18.326;2024-03-22T18:55:48;10.60;99.90
21267;DHT22;10791;53.108;18.326;2024-03-22T19:00:50;10.60;99.90
21267;DHT22;10791;53.108;18.326;2024-03-22T19:05:52;10.60;99.90
21267;DHT22;10791;53.108;18.326;2024-03-22T19:10:54;10.50;99.90
21267;DHT22;10791;53.108;18.326;2024-03-22T19:15:57;10.50;99.90
21267;DHT22;10791;53.108;18.326;2024-03-22T19:20:59;10.50;99.90
21267;DHT22;10791;53.108;18.326;2024-03-22T19:26:02;10.40;99.90
21267;DHT22;10791;53.108;18.326;2024-03-22T19:31:05;10.40;99.90
21267;DHT22;10791;53.108;18.326;2024-03-22T19:36:07;10.40;99.90
21267;DHT22;10791;53.108;18.326;2024-03-22T19:41:09;10.40;99.90
21267;DHT22;10791;53.108;18.326;2024-03-22T19:46:11;10.30;99.90
21267;DHT22;10791;53.108;18.326;2024-03-22T19:51:13;10.30;99.90
21267;DHT22;10791;53.108;18.326;2024-03-22T19:56:16;10.40;99.90
21267;DHT22;10791;53.108;18.326;2024-03-22T20:01:19;10.30;99.90
21267;DHT22;10791;53.108;18.326;2024-03-22T20:06:21;10.30;99.90
21267;DHT22;10791;53.108;18.326;2024-03-22T20:11:24;10.30;99.90
21267;DHT22;10791;53.108;18.326;2024-03-22T20:16:26;10.40;99.90
21267;DHT22;10791;53.108;18.326;2024-03-22T20:21:28;10.30;99.90
21267;DHT22;10791;53.108;18.326;2024-03-22T20:26:31;10.40;99.90
21267;DHT22;10791;53.108;18.326;2024-03-22T20:31:33;10.40;99.90
21267;DHT22;10791;53.108;18.326;2024-03-22T20:36:42;10.40;99.90
